sensor_id;sensor_type;location;lat;lon;timestamp;P1;durP1;ratioP1;P2;durP2;ratioP2
20855;SDS011;63058;49.424;8.420;2023-02-01T00:01:58;3.67;;;2.27;;
20855;SDS011;63058;49.424;8.420;2023-02-01T00:04:25;4.67;;;2.70;;
20855;SDS011;63058;49.424;8.420;2023-02-01T00:06:51;4.33;;;2.97;;
20855;SDS011;63058;49.424;8.420;2023-02-01T00:09:16;4.00;;;2.93;;
20855;SDS011;63058;49.424;8.420;2023-02-01T00:11:42;3.60;;;2.20;;
20855;SDS011;63058;49.424;8.420;2023-02-01T00:14:08;4.03;;;3.10;;
20855;SDS011;63058;49.424;8.420;2023-02-01T00:16:34;3.30;;;2.23;;
20855;SDS011;63058;49.424;8.420;2023-02-01T00:19:01;2.77;;;1.97;;
20855;SDS011;63058;49.424;8.420;2023-02-01T00:21:28;3.23;;;2.30;;
20855;SDS011;63058;49.424;8.420;2023-02-01T00:23:55;3.20;;;2.50;;
20855;SDS011;63058;49.424;8.420;2023-02-01T00:26:34;3.57;;;2.60;;
20855;SDS011;63058;49.424;8.420;2023-02-01T00:29:02;3.40;;;2.50;;
20855;SDS011;63058;49.424;8.420;2023-02-01T00:31:29;5.17;;;2.60;;
20855;SDS011;63058;49.424;8.420;2023-02-01T00:33:55;4.00;;;2.67;;
20855;SDS011;63058;49.424;8.420;2023-02-01T00:36:21;3.13;;;2.37;;
20855;SDS011;63058;49.424;8.420;2023-02-01T00:38:46;3.10;;;2.47;;
20855;SDS011;63058;49.424;8.420;2023-02-01T00:41:13;3.30;;;2.67;;
20855;SDS011;63058;49.424;8.420;2023-02-01T00:43:43;3.17;;;2.40;;
20855;SDS011;63058;49.424;8.420;2023-02-01T00:46:10;2.93;;;2.53;;
20855;SDS011;63058;49.424;8.420;2023-02-01T00:48:37;3.43;;;2.30;;
20855;SDS011;63058;49.424;8.420;2023-02-01T00:51:04;2.73;;;2.10;;
20855;SDS011;63058;49.424;8.420;2023-02-01T00:53:31;3.87;;;2.77;;
20855;SDS011;63058;49.424;8.420;2023-02-01T00:55:57;3.90;;;2.87;;
20855;SDS011;63058;49.424;8.420;2023-02-01T00:58:23;5.87;;;3.53;;
20855;SDS011;63058;49.424;8.420;2023-02-01T01:01:00;4.97;;;3.10;;
20855;SDS011;63058;49.424;8.420;2023-02-01T01:03:37;3.50;;;2.43;;
20855;SDS011;63058;49.424;8.420;2023-02-01T01:06:16;3.70;;;2.47;;
20855;SDS011;63058;49.424;8.420;2023-02-01T01:08:44;5.83;;;3.00;;
20855;SDS011;63058;49.424;8.420;2023-02-01T01:11:11;4.03;;;3.10;;
20855;SDS011;63058;49.424;8.420;2023-02-01T01:13:38;3.97;;;2.57;;
20855;SDS011;63058;49.424;8.420;2023-02-01T01:16:05;3.57;;;2.23;;
20855;SDS011;63058;49.424;8.420;2023-02-01T01:18:32;2.93;;;2.10;;
20855;SDS011;63058;49.424;8.420;2023-02-01T01:20:59;3.10;;;2.07;;
20855;SDS011;63058;49.424;8.420;2023-02-01T01:23:25;3.60;;;2.40;;
20855;SDS011;63058;49.424;8.420;2023-02-01T01:25:51;4.47;;;2.70;;
20855;SDS011;63058;49.424;8.420;2023-02-01T01:28:17;3.13;;;2.00;;
20855;SDS011;63058;49.424;8.420;2023-02-01T01:30:43;2.93;;;1.87;;
20855;SDS011;63058;49.424;8.420;2023-02-01T01:33:08;3.53;;;2.00;;
20855;SDS011;63058;49.424;8.420;2023-02-01T01:35:34;3.47;;;2.10;;
20855;SDS011;63058;49.424;8.420;2023-02-01T01:38:00;3.37;;;2.23;;
20855;SDS011;63058;49.424;8.420;2023-02-01T01:40:27;3.60;;;2.20;;
20855;SDS011;63058;49.424;8.420;2023-02-01T01:42:53;4.13;;;2.03;;
20855;SDS011;63058;49.424;8.420;2023-02-01T01:47:50;2.50;;;1.80;;
20855;SDS011;63058;49.424;8.420;2023-02-01T01:50:21;2.93;;;2.30;;
20855;SDS011;63058;49.424;8.420;2023-02-01T01:52:51;3.17;;;2.00;;
20855;SDS011;63058;49.424;8.420;2023-02-01T01:55:20;3.33;;;2.30;;
20855;SDS011;63058;49.424;8.420;2023-02-01T01:57:57;2.50;;;2.20;;
20855;SDS011;63058;49.424;8.420;2023-02-01T02:00:34;3.40;;;2.00;;
20855;SDS011;63058;49.424;8.420;2023-02-01T02:03:23;3.23;;;2.40;;
20855;SDS011;63058;49.424;8.420;2023-02-01T02:05:59;3.03;;;2.07;;
20855;SDS011;63058;49.424;8.420;2023-02-01T02:08:27;3.17;;;1.90;;
20855;SDS011;63058;49.424;8.420;2023-02-01T02:10:53;2.33;;;1.80;;
20855;SDS011;63058;49.424;8.420;2023-02-01T02:13:26;2.33;;;1.80;;
20855;SDS011;63058;49.424;8.420;2023-02-01T02:27:27;3.13;;;1.80;;
20855;SDS011;63058;49.424;8.420;2023-02-01T02:35:41;3.80;;;2.50;;
20855;SDS011;63058;49.424;8.420;2023-02-01T02:38:40;5.70;;;2.87;;
20855;SDS011;63058;49.424;8.420;2023-02-01T02:44:05;4.90;;;3.40;;
20855;SDS011;63058;49.424;8.420;2023-02-01T02:46:56;7.40;;;3.33;;
20855;SDS011;63058;49.424;8.420;2023-02-01T02:49:56;5.17;;;3.50;;
20855;SDS011;63058;49.424;8.420;2023-02-01T02:52:51;4.83;;;3.40;;
20855;SDS011;63058;49.424;8.420;2023-02-01T02:55:41;4.93;;;2.93;;
20855;SDS011;63058;49.424;8.420;2023-02-01T02:58:08;3.20;;;2.73;;
20855;SDS011;63058;49.424;8.420;2023-02-01T03:00:56;4.17;;;2.80;;
20855;SDS011;63058;49.424;8.420;2023-02-01T03:03:40;6.03;;;3.50;;
20855;SDS011;63058;49.424;8.420;2023-02-01T03:06:25;5.30;;;3.27;;
20855;SDS011;63058;49.424;8.420;2023-02-01T03:08:53;3.30;;;2.63;;
20855;SDS011;63058;49.424;8.420;2023-02-01T03:11:22;4.93;;;3.20;;
20855;SDS011;63058;49.424;8.420;2023-02-01T03:14:09;7.93;;;3.60;;
20855;SDS011;63058;49.424;8.420;2023-02-01T03:16:41;5.03;;;2.95;;
20855;SDS011;63058;49.424;8.420;2023-02-01T03:19:29;4.60;;;2.97;;
20855;SDS011;63058;49.424;8.420;2023-02-01T03:22:01;5.50;;;3.23;;
20855;SDS011;63058;49.424;8.420;2023-02-01T03:27:41;4.87;;;3.00;;
20855;SDS011;63058;49.424;8.420;2023-02-01T03:30:20;5.03;;;3.20;;
20855;SDS011;63058;49.424;8.420;2023-02-01T03:32:55;5.00;;;3.20;;
20855;SDS011;63058;49.424;8.420;2023-02-01T03:37:56;5.20;;;3.27;;
20855;SDS011;63058;49.424;8.420;2023-02-01T03:40:34;5.77;;;3.80;;
20855;SDS011;63058;49.424;8.420;2023-02-01T03:43:01;5.17;;;3.17;;
20855;SDS011;63058;49.424;8.420;2023-02-01T03:45:40;4.63;;;3.27;;
20855;SDS011;63058;49.424;8.420;2023-02-01T03:48:09;8.32;;;3.53;;
20855;SDS011;63058;49.424;8.420;2023-02-01T03:50:38;4.60;;;2.73;;
20855;SDS011;63058;49.424;8.420;2023-02-01T03:53:14;4.53;;;2.63;;
20855;SDS011;63058;49.424;8.420;2023-02-01T03:55:42;4.47;;;2.87;;
20855;SDS011;63058;49.424;8.420;2023-02-01T03:58:12;5.10;;;3.23;;
20855;SDS011;63058;49.424;8.420;2023-02-01T04:00:43;5.33;;;3.10;;
20855;SDS011;63058;49.424;8.420;2023-02-01T04:03:20;5.50;;;3.37;;
20855;SDS011;63058;49.424;8.420;2023-02-01T04:05:47;5.47;;;3.03;;
20855;SDS011;63058;49.424;8.420;2023-02-01T04:08:14;6.33;;;3.60;;
20855;SDS011;63058;49.424;8.420;2023-02-01T04:10:39;5.20;;;3.10;;
20855;SDS011;63058;49.424;8.420;2023-02-01T04:13:05;5.93;;;3.50;;
20855;SDS011;63058;49.424;8.420;2023-02-01T04:15:31;6.40;;;3.60;;
20855;SDS011;63058;49.424;8.420;2023-02-01T04:17:58;7.10;;;3.50;;
20855;SDS011;63058;49.424;8.420;2023-02-01T04:20:24;5.60;;;3.40;;
20855;SDS011;63058;49.424;8.420;2023-02-01T04:22:50;5.70;;;3.30;;
20855;SDS011;63058;49.424;8.420;2023-02-01T04:25:16;6.20;;;3.43;;
20855;SDS011;63058;49.424;8.420;2023-02-01T04:27:42;6.27;;;3.70;;
20855;SDS011;63058;49.424;8.420;2023-02-01T04:30:08;6.00;;;3.40;;
20855;SDS011;63058;49.424;8.420;2023-02-01T04:32:35;4.40;;;3.10;;
20855;SDS011;63058;49.424;8.420;2023-02-01T04:35:02;5.43;;;3.20;;
20855;SDS011;63058;49.424;8.420;2023-02-01T04:37:28;4.87;;;3.40;;
20855;SDS011;63058;49.424;8.420;2023-02-01T04:39:57;7.60;;;3.23;;
20855;SDS011;63058;49.424;8.420;2023-02-01T04:42:23;7.20;;;3.37;;
20855;SDS011;63058;49.424;8.420;2023-02-01T04:44:48;6.20;;;3.07;;
20855;SDS011;63058;49.424;8.420;2023-02-01T04:47:14;5.60;;;3.20;;
20855;SDS011;63058;49.424;8.420;2023-02-01T04:49:40;4.63;;;3.10;;
20855;SDS011;63058;49.424;8.420;2023-02-01T04:52:06;6.20;;;3.40;;
20855;SDS011;63058;49.424;8.420;2023-02-01T04:54:32;7.67;;;3.70;;
20855;SDS011;63058;49.424;8.420;2023-02-01T04:56:58;5.27;;;3.03;;
20855;SDS011;63058;49.424;8.420;2023-02-01T04:59:24;5.00;;;3.37;;
20855;SDS011;63058;49.424;8.420;2023-02-01T05:01:50;6.70;;;3.20;;
20855;SDS011;63058;49.424;8.420;2023-02-01T05:04:15;6.27;;;3.30;;
20855;SDS011;63058;49.424;8.420;2023-02-01T05:06:43;4.53;;;3.10;;
20855;SDS011;63058;49.424;8.420;2023-02-01T05:09:09;6.33;;;3.50;;
20855;SDS011;63058;49.424;8.420;2023-02-01T05:11:35;5.17;;;3.37;;
20855;SDS011;63058;49.424;8.420;2023-02-01T05:14:19;4.87;;;2.77;;
20855;SDS011;63058;49.424;8.420;2023-02-01T05:16:45;5.07;;;3.20;;
20855;SDS011;63058;49.424;8.420;2023-02-01T05:19:11;4.13;;;2.78;;
20855;SDS011;63058;49.424;8.420;2023-02-01T05:21:37;5.80;;;3.03;;
20855;SDS011;63058;49.424;8.420;2023-02-01T05:24:03;6.83;;;3.20;;
20855;SDS011;63058;49.424;8.420;2023-02-01T05:26:35;3.43;;;2.03;;
20855;SDS011;63058;49.424;8.420;2023-02-01T05:29:02;4.93;;;2.27;;
20855;SDS011;63058;49.424;8.420;2023-02-01T05:31:28;2.67;;;2.10;;
20855;SDS011;63058;49.424;8.420;2023-02-01T05:33:54;3.73;;;2.20;;
20855;SDS011;63058;49.424;8.420;2023-02-01T05:36:20;3.87;;;2.10;;
20855;SDS011;63058;49.424;8.420;2023-02-01T05:38:45;4.07;;;2.40;;
20855;SDS011;63058;49.424;8.420;2023-02-01T05:41:11;3.80;;;2.13;;
20855;SDS011;63058;49.424;8.420;2023-02-01T05:43:37;5.93;;;2.70;;
20855;SDS011;63058;49.424;8.420;2023-02-01T05:46:02;5.83;;;2.90;;
20855;SDS011;63058;49.424;8.420;2023-02-01T05:48:28;3.97;;;2.70;;
20855;SDS011;63058;49.424;8.420;2023-02-01T05:50:54;4.23;;;3.13;;
20855;SDS011;63058;49.424;8.420;2023-02-01T05:53:19;5.37;;;2.87;;
20855;SDS011;63058;49.424;8.420;2023-02-01T05:55:45;5.63;;;2.80;;
20855;SDS011;63058;49.424;8.420;2023-02-01T05:58:11;4.93;;;3.07;;
20855;SDS011;63058;49.424;8.420;2023-02-01T06:00:37;8.33;;;3.40;;
20855;SDS011;63058;49.424;8.420;2023-02-01T06:03:03;5.13;;;2.63;;
20855;SDS011;63058;49.424;8.420;2023-02-01T06:05:29;5.40;;;2.70;;
20855;SDS011;63058;49.424;8.420;2023-02-01T06:07:55;6.87;;;3.13;;
20855;SDS011;63058;49.424;8.420;2023-02-01T06:10:20;4.30;;;2.50;;
20855;SDS011;63058;49.424;8.420;2023-02-01T06:12:46;4.43;;;2.23;;
20855;SDS011;63058;49.424;8.420;2023-02-01T06:15:12;4.07;;;2.80;;
20855;SDS011;63058;49.424;8.420;2023-02-01T06:17:40;4.23;;;2.50;;
20855;SDS011;63058;49.424;8.420;2023-02-01T06:20:08;3.70;;;2.40;;
20855;SDS011;63058;49.424;8.420;2023-02-01T06:22:34;3.87;;;2.27;;
20855;SDS011;63058;49.424;8.420;2023-02-01T06:25:01;4.63;;;3.10;;
20855;SDS011;63058;49.424;8.420;2023-02-01T06:27:30;5.87;;;2.77;;
20855;SDS011;63058;49.424;8.420;2023-02-01T06:29:57;4.90;;;2.50;;
20855;SDS011;63058;49.424;8.420;2023-02-01T06:32:23;3.93;;;2.87;;
20855;SDS011;63058;49.424;8.420;2023-02-01T06:34:48;6.90;;;3.10;;
20855;SDS011;63058;49.424;8.420;2023-02-01T06:37:14;6.33;;;3.23;;
20855;SDS011;63058;49.424;8.420;2023-02-01T06:39:40;7.83;;;3.53;;
20855;SDS011;63058;49.424;8.420;2023-02-01T06:42:05;5.63;;;3.50;;
20855;SDS011;63058;49.424;8.420;2023-02-01T06:44:31;6.83;;;3.97;;
20855;SDS011;63058;49.424;8.420;2023-02-01T06:46:57;6.40;;;3.90;;
20855;SDS011;63058;49.424;8.420;2023-02-01T06:49:22;8.73;;;3.73;;
20855;SDS011;63058;49.424;8.420;2023-02-01T06:51:48;7.27;;;3.23;;
20855;SDS011;63058;49.424;8.420;2023-02-01T06:54:14;7.33;;;3.40;;
20855;SDS011;63058;49.424;8.420;2023-02-01T06:56:39;9.00;;;3.67;;
20855;SDS011;63058;49.424;8.420;2023-02-01T06:59:05;5.60;;;3.20;;
20855;SDS011;63058;49.424;8.420;2023-02-01T07:01:32;4.57;;;2.53;;
20855;SDS011;63058;49.424;8.420;2023-02-01T07:14:19;9.07;;;3.03;;
20855;SDS011;63058;49.424;8.420;2023-02-01T07:16:45;6.23;;;3.07;;
20855;SDS011;63058;49.424;8.420;2023-02-01T07:19:10;7.83;;;3.10;;
20855;SDS011;63058;49.424;8.420;2023-02-01T07:21:36;7.57;;;2.90;;
20855;SDS011;63058;49.424;8.420;2023-02-01T07:24:02;7.53;;;2.40;;
20855;SDS011;63058;49.424;8.420;2023-02-01T07:26:27;6.97;;;2.27;;
20855;SDS011;63058;49.424;8.420;2023-02-01T07:28:54;6.37;;;2.90;;
20855;SDS011;63058;49.424;8.420;2023-02-01T07:31:20;6.67;;;2.90;;
20855;SDS011;63058;49.424;8.420;2023-02-01T07:33:47;5.77;;;2.87;;
20855;SDS011;63058;49.424;8.420;2023-02-01T07:36:16;6.73;;;2.50;;
20855;SDS011;63058;49.424;8.420;2023-02-01T07:38:43;7.17;;;2.43;;
20855;SDS011;63058;49.424;8.420;2023-02-01T07:41:09;5.37;;;2.57;;
20855;SDS011;63058;49.424;8.420;2023-02-01T07:43:35;10.37;;;3.00;;
20855;SDS011;63058;49.424;8.420;2023-02-01T07:46:01;6.10;;;2.23;;
20855;SDS011;63058;49.424;8.420;2023-02-01T07:48:28;7.33;;;2.40;;
20855;SDS011;63058;49.424;8.420;2023-02-01T07:51:05;4.73;;;2.00;;
20855;SDS011;63058;49.424;8.420;2023-02-01T07:53:36;5.57;;;2.50;;
20855;SDS011;63058;49.424;8.420;2023-02-01T07:56:03;7.43;;;2.80;;
20855;SDS011;63058;49.424;8.420;2023-02-01T07:58:35;11.57;;;3.20;;
20855;SDS011;63058;49.424;8.420;2023-02-01T08:01:00;9.03;;;2.67;;
20855;SDS011;63058;49.424;8.420;2023-02-01T08:03:44;8.50;;;2.70;;
20855;SDS011;63058;49.424;8.420;2023-02-01T08:06:10;4.77;;;2.07;;
20855;SDS011;63058;49.424;8.420;2023-02-01T08:08:36;5.50;;;2.00;;
20855;SDS011;63058;49.424;8.420;2023-02-01T08:11:03;6.13;;;2.00;;
20855;SDS011;63058;49.424;8.420;2023-02-01T08:13:30;5.60;;;2.03;;
20855;SDS011;63058;49.424;8.420;2023-02-01T08:16:01;3.57;;;1.53;;
20855;SDS011;63058;49.424;8.420;2023-02-01T08:18:29;5.10;;;2.10;;
20855;SDS011;63058;49.424;8.420;2023-02-01T08:20:56;4.60;;;1.77;;
20855;SDS011;63058;49.424;8.420;2023-02-01T08:23:22;5.70;;;2.20;;
20855;SDS011;63058;49.424;8.420;2023-02-01T08:25:51;5.63;;;1.97;;
20855;SDS011;63058;49.424;8.420;2023-02-01T08:28:39;6.53;;;2.53;;
20855;SDS011;63058;49.424;8.420;2023-02-01T08:31:11;5.73;;;2.23;;
20855;SDS011;63058;49.424;8.420;2023-02-01T08:33:40;5.53;;;2.63;;
20855;SDS011;63058;49.424;8.420;2023-02-01T08:36:10;9.73;;;3.40;;
20855;SDS011;63058;49.424;8.420;2023-02-01T08:38:37;6.53;;;2.70;;
20855;SDS011;63058;49.424;8.420;2023-02-01T08:41:05;12.18;;;3.58;;
20855;SDS011;63058;49.424;8.420;2023-02-01T08:43:35;8.85;;;2.90;;
20855;SDS011;63058;49.424;8.420;2023-02-01T08:46:01;10.55;;;3.50;;
20855;SDS011;63058;49.424;8.420;2023-02-01T08:48:45;7.33;;;2.60;;
20855;SDS011;63058;49.424;8.420;2023-02-01T08:51:23;8.40;;;3.13;;
20855;SDS011;63058;49.424;8.420;2023-02-01T08:53:59;9.18;;;3.33;;
20855;SDS011;63058;49.424;8.420;2023-02-01T08:56:28;11.20;;;3.07;;
20855;SDS011;63058;49.424;8.420;2023-02-01T08:58:56;8.43;;;2.70;;
20855;SDS011;63058;49.424;8.420;2023-02-01T09:01:27;11.23;;;3.60;;
20855;SDS011;63058;49.424;8.420;2023-02-01T09:03:56;9.90;;;3.85;;
20855;SDS011;63058;49.424;8.420;2023-02-01T09:06:24;10.90;;;3.83;;
20855;SDS011;63058;49.424;8.420;2023-02-01T09:08:52;8.75;;;3.78;;
20855;SDS011;63058;49.424;8.420;2023-02-01T09:11:18;11.98;;;3.45;;
20855;SDS011;63058;49.424;8.420;2023-02-01T09:13:57;16.15;;;4.13;;
20855;SDS011;63058;49.424;8.420;2023-02-01T09:17:14;12.85;;;3.63;;
20855;SDS011;63058;49.424;8.420;2023-02-01T09:19:29;13.73;;;4.05;;
20855;SDS011;63058;49.424;8.420;2023-02-01T09:22:16;12.10;;;3.30;;
20855;SDS011;63058;49.424;8.420;2023-02-01T09:24:42;7.05;;;2.80;;
20855;SDS011;63058;49.424;8.420;2023-02-01T09:27:11;9.60;;;3.00;;
20855;SDS011;63058;49.424;8.420;2023-02-01T09:29:41;11.90;;;3.58;;
20855;SDS011;63058;49.424;8.420;2023-02-01T09:32:14;10.63;;;2.83;;
20855;SDS011;63058;49.424;8.420;2023-02-01T09:34:40;11.77;;;3.00;;
20855;SDS011;63058;49.424;8.420;2023-02-01T09:37:09;7.63;;;2.60;;
20855;SDS011;63058;49.424;8.420;2023-02-01T09:39:34;11.23;;;2.87;;
20855;SDS011;63058;49.424;8.420;2023-02-01T09:42:12;7.75;;;2.65;;
20855;SDS011;63058;49.424;8.420;2023-02-01T09:48:29;8.00;;;2.40;;
20855;SDS011;63058;49.424;8.420;2023-02-01T09:51:04;10.50;;;3.10;;
20855;SDS011;63058;49.424;8.420;2023-02-01T09:53:41;11.82;;;2.95;;
20855;SDS011;63058;49.424;8.420;2023-02-01T09:56:23;14.82;;;3.65;;
20855;SDS011;63058;49.424;8.420;2023-02-01T10:01:56;9.52;;;2.38;;
20855;SDS011;63058;49.424;8.420;2023-02-01T10:04:24;10.02;;;2.47;;
20855;SDS011;63058;49.424;8.420;2023-02-01T10:10:21;12.35;;;2.47;;
20855;SDS011;63058;49.424;8.420;2023-02-01T10:13:06;6.57;;;2.22;;
20855;SDS011;63058;49.424;8.420;2023-02-01T10:18:57;10.10;;;2.80;;
20855;SDS011;63058;49.424;8.420;2023-02-01T10:27:17;9.40;;;2.30;;
20855;SDS011;63058;49.424;8.420;2023-02-01T10:29:50;8.00;;;1.70;;
20855;SDS011;63058;49.424;8.420;2023-02-01T10:32:21;11.75;;;2.53;;
20855;SDS011;63058;49.424;8.420;2023-02-01T10:34:55;7.82;;;2.20;;
20855;SDS011;63058;49.424;8.420;2023-02-01T10:37:45;12.50;;;2.88;;
20855;SDS011;63058;49.424;8.420;2023-02-01T10:43:19;12.07;;;3.15;;
20855;SDS011;63058;49.424;8.420;2023-02-01T10:45:52;13.82;;;2.70;;
20855;SDS011;63058;49.424;8.420;2023-02-01T10:48:21;11.32;;;2.78;;
20855;SDS011;63058;49.424;8.420;2023-02-01T10:50:55;9.88;;;2.38;;
20855;SDS011;63058;49.424;8.420;2023-02-01T10:53:32;8.02;;;2.25;;
20855;SDS011;63058;49.424;8.420;2023-02-01T10:56:11;9.77;;;2.55;;
20855;SDS011;63058;49.424;8.420;2023-02-01T10:58:45;8.88;;;2.28;;
20855;SDS011;63058;49.424;8.420;2023-02-01T11:01:22;10.40;;;2.30;;
20855;SDS011;63058;49.424;8.420;2023-02-01T11:03:54;8.50;;;2.50;;
20855;SDS011;63058;49.424;8.420;2023-02-01T11:06:38;9.85;;;2.10;;
20855;SDS011;63058;49.424;8.420;2023-02-01T11:09:21;15.48;;;2.70;;
20855;SDS011;63058;49.424;8.420;2023-02-01T11:16:46;10.98;;;2.33;;
20855;SDS011;63058;49.424;8.420;2023-02-01T11:19:16;10.93;;;2.53;;
20855;SDS011;63058;49.424;8.420;2023-02-01T11:21:43;12.55;;;2.55;;
20855;SDS011;63058;49.424;8.420;2023-02-01T11:24:19;12.88;;;2.83;;
20855;SDS011;63058;49.424;8.420;2023-02-01T11:26:57;6.43;;;2.05;;
20855;SDS011;63058;49.424;8.420;2023-02-01T11:29:28;9.30;;;2.40;;
20855;SDS011;63058;49.424;8.420;2023-02-01T11:32:07;10.25;;;2.17;;
20855;SDS011;63058;49.424;8.420;2023-02-01T11:34:38;12.05;;;2.25;;
20855;SDS011;63058;49.424;8.420;2023-02-01T11:39:56;10.52;;;2.20;;
20855;SDS011;63058;49.424;8.420;2023-02-01T11:42:24;11.02;;;2.53;;
20855;SDS011;63058;49.424;8.420;2023-02-01T11:44:51;8.38;;;2.00;;
20855;SDS011;63058;49.424;8.420;2023-02-01T11:47:40;9.88;;;2.38;;
20855;SDS011;63058;49.424;8.420;2023-02-01T11:50:17;10.80;;;2.58;;
20855;SDS011;63058;49.424;8.420;2023-02-01T12:01:21;11.88;;;2.63;;
20855;SDS011;63058;49.424;8.420;2023-02-01T12:04:21;11.57;;;2.45;;
20855;SDS011;63058;49.424;8.420;2023-02-01T12:07:17;14.07;;;3.25;;
20855;SDS011;63058;49.424;8.420;2023-02-01T12:26:56;12.85;;;2.83;;
20855;SDS011;63058;49.424;8.420;2023-02-01T12:29:39;12.85;;;2.85;;
20855;SDS011;63058;49.424;8.420;2023-02-01T12:33:01;9.95;;;2.20;;
20855;SDS011;63058;49.424;8.420;2023-02-01T12:38:27;10.38;;;2.42;;
20855;SDS011;63058;49.424;8.420;2023-02-01T12:41:18;8.32;;;2.33;;
20855;SDS011;63058;49.424;8.420;2023-02-01T12:52:43;10.82;;;2.20;;
20855;SDS011;63058;49.424;8.420;2023-02-01T12:55:32;8.15;;;2.25;;
20855;SDS011;63058;49.424;8.420;2023-02-01T12:58:07;16.38;;;2.92;;
20855;SDS011;63058;49.424;8.420;2023-02-01T13:06:04;11.55;;;2.25;;
20855;SDS011;63058;49.424;8.420;2023-02-01T13:11:45;9.77;;;2.20;;
20855;SDS011;63058;49.424;8.420;2023-02-01T13:14:19;10.60;;;2.60;;
20855;SDS011;63058;49.424;8.420;2023-02-01T13:17:14;12.95;;;2.55;;
20855;SDS011;63058;49.424;8.420;2023-02-01T13:24:57;11.40;;;2.22;;
20855;SDS011;63058;49.424;8.420;2023-02-01T13:27:31;9.52;;;1.98;;
20855;SDS011;63058;49.424;8.420;2023-02-01T13:30:18;7.97;;;2.13;;
20855;SDS011;63058;49.424;8.420;2023-02-01T13:33:12;8.30;;;1.67;;
20855;SDS011;63058;49.424;8.420;2023-02-01T13:44:34;10.30;;;1.98;;
20855;SDS011;63058;49.424;8.420;2023-02-01T13:49:54;11.32;;;2.28;;
20855;SDS011;63058;49.424;8.420;2023-02-01T13:52:27;8.95;;;2.20;;
20855;SDS011;63058;49.424;8.420;2023-02-01T13:57:50;10.85;;;2.00;;
20855;SDS011;63058;49.424;8.420;2023-02-01T14:15:38;12.80;;;2.80;;
20855;SDS011;63058;49.424;8.420;2023-02-01T14:18:48;10.07;;;2.25;;
20855;SDS011;63058;49.424;8.420;2023-02-01T14:26:21;11.63;;;2.33;;
20855;SDS011;63058;49.424;8.420;2023-02-01T14:31:41;9.40;;;2.42;;
20855;SDS011;63058;49.424;8.420;2023-02-01T14:34:15;9.60;;;2.50;;
20855;SDS011;63058;49.424;8.420;2023-02-01T14:36:46;8.40;;;2.53;;
20855;SDS011;63058;49.424;8.420;2023-02-01T14:39:19;8.30;;;2.67;;
20855;SDS011;63058;49.424;8.420;2023-02-01T14:44:50;11.32;;;2.25;;
20855;SDS011;63058;49.424;8.420;2023-02-01T14:50:03;10.75;;;2.50;;
20855;SDS011;63058;49.424;8.420;2023-02-01T14:55:45;10.63;;;2.45;;
20855;SDS011;63058;49.424;8.420;2023-02-01T15:06:03;8.73;;;2.22;;
20855;SDS011;63058;49.424;8.420;2023-02-01T15:08:35;12.20;;;2.40;;
20855;SDS011;63058;49.424;8.420;2023-02-01T15:11:06;10.73;;;2.33;;
20855;SDS011;63058;49.424;8.420;2023-02-01T15:13:39;8.93;;;2.13;;
20855;SDS011;63058;49.424;8.420;2023-02-01T15:16:12;10.25;;;2.47;;
20855;SDS011;63058;49.424;8.420;2023-02-01T15:18:39;6.63;;;1.67;;
20855;SDS011;63058;49.424;8.420;2023-02-01T15:21:06;8.77;;;1.77;;
20855;SDS011;63058;49.424;8.420;2023-02-01T15:23:48;9.77;;;2.10;;
20855;SDS011;63058;49.424;8.420;2023-02-01T15:26:26;7.57;;;2.00;;
20855;SDS011;63058;49.424;8.420;2023-02-01T15:28:55;4.70;;;1.50;;
20855;SDS011;63058;49.424;8.420;2023-02-01T15:31:39;7.28;;;1.80;;
20855;SDS011;63058;49.424;8.420;2023-02-01T15:34:08;13.07;;;2.28;;
20855;SDS011;63058;49.424;8.420;2023-02-01T15:36:33;6.30;;;2.08;;
20855;SDS011;63058;49.424;8.420;2023-02-01T15:41:52;6.82;;;1.73;;
20855;SDS011;63058;49.424;8.420;2023-02-01T15:47:07;11.82;;;2.50;;
20855;SDS011;63058;49.424;8.420;2023-02-01T15:49:50;7.25;;;2.00;;
20855;SDS011;63058;49.424;8.420;2023-02-01T15:52:38;8.48;;;2.03;;
20855;SDS011;63058;49.424;8.420;2023-02-01T15:55:19;9.10;;;2.33;;
20855;SDS011;63058;49.424;8.420;2023-02-01T15:58:09;13.00;;;2.80;;
20855;SDS011;63058;49.424;8.420;2023-02-01T16:00:45;10.00;;;2.00;;
20855;SDS011;63058;49.424;8.420;2023-02-01T16:03:27;8.13;;;1.92;;
20855;SDS011;63058;49.424;8.420;2023-02-01T16:06:03;8.05;;;2.10;;
20855;SDS011;63058;49.424;8.420;2023-02-01T16:08:51;8.80;;;1.90;;
20855;SDS011;63058;49.424;8.420;2023-02-01T16:11:25;10.43;;;2.20;;
20855;SDS011;63058;49.424;8.420;2023-02-01T16:13:53;11.75;;;2.50;;
20855;SDS011;63058;49.424;8.420;2023-02-01T16:16:18;8.20;;;1.85;;
20855;SDS011;63058;49.424;8.420;2023-02-01T16:18:44;9.63;;;2.17;;
20855;SDS011;63058;49.424;8.420;2023-02-01T16:21:12;13.07;;;2.60;;
20855;SDS011;63058;49.424;8.420;2023-02-01T16:23:38;10.60;;;2.65;;
20855;SDS011;63058;49.424;8.420;2023-02-01T16:26:04;11.45;;;2.30;;
20855;SDS011;63058;49.424;8.420;2023-02-01T16:28:30;11.75;;;2.33;;
20855;SDS011;63058;49.424;8.420;2023-02-01T16:30:56;8.70;;;2.35;;
20855;SDS011;63058;49.424;8.420;2023-02-01T16:33:22;13.23;;;2.60;;
20855;SDS011;63058;49.424;8.420;2023-02-01T16:35:49;12.20;;;2.70;;
20855;SDS011;63058;49.424;8.420;2023-02-01T16:38:16;10.68;;;2.33;;
20855;SDS011;63058;49.424;8.420;2023-02-01T16:40:47;11.20;;;2.28;;
20855;SDS011;63058;49.424;8.420;2023-02-01T16:43:17;11.32;;;2.40;;
20855;SDS011;63058;49.424;8.420;2023-02-01T16:45:48;15.90;;;3.50;;
20855;SDS011;63058;49.424;8.420;2023-02-01T16:48:22;14.32;;;3.22;;
20855;SDS011;63058;49.424;8.420;2023-02-01T16:50:54;16.55;;;4.28;;
20855;SDS011;63058;49.424;8.420;2023-02-01T16:53:26;15.32;;;3.53;;
20855;SDS011;63058;49.424;8.420;2023-02-01T16:55:54;8.93;;;2.72;;
20855;SDS011;63058;49.424;8.420;2023-02-01T16:58:24;15.88;;;3.90;;
20855;SDS011;63058;49.424;8.420;2023-02-01T17:00:52;8.38;;;2.50;;
20855;SDS011;63058;49.424;8.420;2023-02-01T17:03:19;11.23;;;3.05;;
20855;SDS011;63058;49.424;8.420;2023-02-01T17:05:50;12.45;;;2.90;;
20855;SDS011;63058;49.424;8.420;2023-02-01T17:09:02;12.80;;;2.20;;
20855;SDS011;63058;49.424;8.420;2023-02-01T17:11:17;9.60;;;1.85;;
20855;SDS011;63058;49.424;8.420;2023-02-01T17:13:42;12.98;;;2.40;;
20855;SDS011;63058;49.424;8.420;2023-02-01T17:16:20;9.90;;;2.60;;
20855;SDS011;63058;49.424;8.420;2023-02-01T17:19:01;13.57;;;3.33;;
20855;SDS011;63058;49.424;8.420;2023-02-01T17:21:30;10.45;;;2.85;;
20855;SDS011;63058;49.424;8.420;2023-02-01T17:24:09;11.90;;;2.50;;
20855;SDS011;63058;49.424;8.420;2023-02-01T17:26:39;15.07;;;3.22;;
20855;SDS011;63058;49.424;8.420;2023-02-01T17:29:05;13.20;;;2.92;;
20855;SDS011;63058;49.424;8.420;2023-02-01T17:31:35;13.77;;;3.10;;
20855;SDS011;63058;49.424;8.420;2023-02-01T17:34:10;14.27;;;3.00;;
20855;SDS011;63058;49.424;8.420;2023-02-01T17:36:36;10.45;;;2.33;;
20855;SDS011;63058;49.424;8.420;2023-02-01T17:39:06;14.85;;;3.30;;
20855;SDS011;63058;49.424;8.420;2023-02-01T17:41:32;9.73;;;2.55;;
20855;SDS011;63058;49.424;8.420;2023-02-01T17:43:58;18.65;;;3.90;;
20855;SDS011;63058;49.424;8.420;2023-02-01T17:46:23;7.78;;;2.47;;
20855;SDS011;63058;49.424;8.420;2023-02-01T17:48:53;10.23;;;2.60;;
20855;SDS011;63058;49.424;8.420;2023-02-01T17:51:20;10.32;;;2.35;;
20855;SDS011;63058;49.424;8.420;2023-02-01T17:53:53;8.65;;;2.15;;
20855;SDS011;63058;49.424;8.420;2023-02-01T17:56:20;15.88;;;2.75;;
20855;SDS011;63058;49.424;8.420;2023-02-01T17:58:48;14.05;;;2.97;;
20855;SDS011;63058;49.424;8.420;2023-02-01T18:01:15;15.25;;;2.88;;
20855;SDS011;63058;49.424;8.420;2023-02-01T18:03:46;12.27;;;2.77;;
20855;SDS011;63058;49.424;8.420;2023-02-01T18:06:12;8.90;;;3.00;;
20855;SDS011;63058;49.424;8.420;2023-02-01T18:08:40;10.93;;;2.60;;